Time;durP1;ratioP1;P1;durP2;ratioP2;P2;SDS_P1;SDS_P2;PMS_P1;PMS_P2;Temp;Humidity;BMP_temperature;BMP_pressure;BME280_temperature;BME280_humidity;BME280_pressure;Samples;Min_cycle;Max_cycle;Signal;HPM_P1;HPM_P2
2022/07/21 00:07:15;;;;;;;3.10;1.75;;;20.10;99.90;;;;;;20703004;28;20034;-80
2022/07/21 00:17:17;;;;;;;3.25;1.38;;;20.10;99.90;;;;;;20683410;28;20136;-81
2022/07/21 00:27:18;;;;;;;2.90;1.42;;;20.00;99.90;;;;;;20675824;28;20438;-80
2022/07/21 00:37:19;;;;;;;3.70;2.08;;;20.00;99.90;;;;;;20657549;28;20686;-81
2022/07/21 00:47:24;;;;;;;3.63;1.77;;;20.10;99.90;;;;;;20614948;28;20097;-80
2022/07/21 00:57:25;;;;;;;3.50;1.58;;;20.10;99.90;;;;;;20597507;28;20070;-81
2022/07/21 01:07:26;;;;;;;3.53;1.50;;;20.00;99.90;;;;;;20589223;28;20448;-80
2022/07/21 01:17:28;;;;;;;2.78;1.20;;;19.90;99.90;;;;;;20587239;28;20094;-80
2022/07/21 01:27:29;;;;;;;3.53;1.58;;;19.90;99.90;;;;;;20584828;28;20443;-80
2022/07/21 01:37:31;;;;;;;5.13;1.60;;;19.90;99.90;;;;;;20613440;28;20097;-80
2022/07/21 01:47:32;;;;;;;4.03;1.67;;;19.80;99.90;;;;;;20639954;28;20478;-80
2022/07/21 01:57:33;;;;;;;4.28;2.53;;;19.80;99.90;;;;;;20652827;28;20061;-80
2022/07/21 02:07:35;;;;;;;3.70;1.38;;;19.70;99.90;;;;;;20673042;28;20042;-80
2022/07/21 02:17:36;;;;;;;4.43;2.10;;;19.60;99.90;;;;;;20670940;28;20041;-80
2022/07/21 02:27:37;;;;;;;4.47;2.47;;;19.60;99.90;;;;;;20664140;28;20070;-80
2022/07/21 02:37:38;;;;;;;5.47;2.13;;;19.60;99.90;;;;;;20657093;28;20046;-81
2022/07/21 02:47:56;;;;;;;5.05;1.73;;;19.50;99.90;;;;;;20597926;28;20050;-80
2022/07/21 02:58:08;;;;;;;4.78;2.50;;;19.40;99.90;;;;;;20581642;28;20031;-80
2022/07/21 03:08:10;;;;;;;4.55;2.45;;;19.50;99.90;;;;;;20594424;28;20042;-81
2022/07/21 03:18:11;;;;;;;5.18;2.20;;;19.40;99.90;;;;;;20598971;28;20027;-81
2022/07/21 03:28:12;;;;;;;5.00;2.38;;;19.40;99.90;;;;;;20580109;28;20058;-81
2022/07/21 03:38:13;;;;;;;6.10;2.65;;;19.40;99.90;;;;;;20624951;28;20046;-81
2022/07/21 03:48:14;;;;;;;6.75;3.47;;;19.40;99.90;;;;;;20680700;28;20093;-81
2022/07/21 03:58:15;;;;;;;5.97;2.63;;;19.30;99.90;;;;;;20689753;28;20034;-80
2022/07/21 04:08:16;;;;;;;7.60;3.25;;;19.30;99.90;;;;;;20670624;28;20404;-81
2022/07/21 04:18:17;;;;;;;5.80;3.10;;;19.30;99.90;;;;;;20690755;28;20445;-81
2022/07/21 04:28:18;;;;;;;5.65;2.30;;;19.40;99.90;;;;;;20667614;28;20054;-81
2022/07/21 04:38:19;;;;;;;6.60;2.72;;;19.30;99.90;;;;;;20679907;28;20100;-81
2022/07/21 04:48:20;;;;;;;4.82;2.50;;;19.20;99.90;;;;;;20671083;28;20046;-81
2022/07/21 04:58:22;;;;;;;4.53;2.92;;;19.30;99.90;;;;;;20646664;28;20048;-81
2022/07/21 05:08:26;;;;;;;6.30;3.55;;;19.20;99.90;;;;;;20636899;28;20495;-81
2022/07/21 05:18:27;;;;;;;7.63;4.22;;;19.30;99.90;;;;;;20649524;28;20089;-81
2022/07/21 05:28:28;;;;;;;7.70;3.80;;;19.50;99.90;;;;;;20669998;28;20042;-81
2022/07/21 05:38:30;;;;;;;8.52;3.83;;;19.70;99.90;;;;;;20710453;28;20022;-80
2022/07/21 05:48:31;;;;;;;7.22;3.83;;;19.70;99.90;;;;;;20645382;28;20124;-81
2022/07/21 05:58:34;;;;;;;9.18;4.22;;;19.90;99.90;;;;;;20633804;28;20042;-81
2022/07/21 06:08:37;;;;;;;6.38;2.90;;;20.40;99.90;;;;;;20676127;28;20054;-80
2022/07/21 06:18:38;;;;;;;6.75;3.47;;;20.60;99.90;;;;;;20672803;28;20076;-82
2022/07/21 06:28:39;;;;;;;12.77;4.30;;;20.50;99.90;;;;;;20639755;28;20120;-82
2022/07/21 06:38:40;;;;;;;11.73;4.05;;;20.10;99.90;;;;;;20654447;28;20053;-81
2022/07/21 06:48:41;;;;;;;10.82;3.97;;;20.10;99.90;;;;;;20681198;28;20100;-81
2022/07/21 06:58:42;;;;;;;13.45;4.70;;;20.00;99.90;;;;;;20667495;28;20339;-81
2022/07/21 07:08:43;;;;;;;12.30;5.63;;;19.90;99.90;;;;;;20670596;28;20110;-81
2022/07/21 07:18:44;;;;;;;9.63;4.80;;;19.80;99.90;;;;;;20661468;28;20089;-81
2022/07/21 07:28:46;;;;;;;13.85;5.47;;;19.80;99.90;;;;;;20672861;28;20041;-81
2022/07/21 07:38:48;;;;;;;8.38;4.72;;;19.70;99.90;;;;;;20693945;28;20617;-81
2022/07/21 07:48:49;;;;;;;9.55;4.53;;;19.60;99.90;;;;;;20680572;28;20042;-81
2022/07/21 07:58:50;;;;;;;7.97;4.28;;;19.60;99.90;;;;;;20684887;28;20094;-80
2022/07/21 08:08:51;;;;;;;6.55;3.00;;;19.50;99.90;;;;;;20679310;28;20034;-80
2022/07/21 08:18:52;;;;;;;5.28;2.00;;;19.30;99.90;;;;;;20685579;28;20045;-80
2022/07/21 08:28:55;;;;;;;3.53;2.10;;;18.80;99.90;;;;;;20693711;28;20049;-80
2022/07/21 08:38:56;;;;;;;3.72;2.20;;;18.50;99.90;;;;;;20654810;28;20043;-81
2022/07/21 08:48:59;;;;;;;4.80;2.08;;;18.30;99.90;;;;;;20609137;28;20097;-80
2022/07/21 08:59:00;;;;;;;3.45;1.98;;;18.30;99.90;;;;;;20573984;28;20490;-82
2022/07/21 09:09:02;;;;;;;4.65;2.20;;;18.40;99.90;;;;;;20608122;28;20047;-81
2022/07/21 09:19:04;;;;;;;3.80;2.17;;;18.50;99.90;;;;;;20588449;28;20506;-79
2022/07/21 09:29:11;;;;;;;4.95;2.22;;;18.40;99.90;;;;;;20587487;28;20053;-78
2022/07/21 09:39:12;;;;;;;4.03;1.80;;;18.30;99.90;;;;;;20623323;28;20611;-80
2022/07/21 09:49:13;;;;;;;4.95;1.90;;;18.30;99.90;;;;;;20665145;28;20042;-80
2022/07/21 09:59:14;;;;;;;3.92;2.20;;;18.20;99.90;;;;;;20672419;28;20402;-80
2022/07/21 10:09:16;;;;;;;7.75;2.92;;;18.10;99.90;;;;;;20656030;28;20034;-80
2022/07/21 10:19:32;;;;;;;3.60;2.25;;;18.10;99.90;;;;;;20676456;28;20917;-81
2022/07/21 10:29:50;;;;;;;3.42;1.95;;;18.00;99.90;;;;;;20642585;28;20708;-82
2022/07/21 10:39:50;;;;;;;4.10;2.23;;;17.80;99.90;;;;;;20639316;28;20122;-79
2022/07/21 10:49:52;;;;;;;2.95;1.77;;;17.90;99.90;;;;;;20623179;28;20061;-80
2022/07/21 11:00:15;;;;;;;2.97;1.48;;;17.90;99.90;;;;;;20642901;28;20041;-80
2022/07/21 11:10:18;;;;;;;3.35;1.25;;;17.90;99.90;;;;;;20636081;28;20097;-80
2022/07/21 11:20:19;;;;;;;3.05;1.27;;;17.90;99.90;;;;;;20655778;28;20458;-81
2022/07/21 11:30:20;;;;;;;2.65;1.27;;;17.90;99.90;;;;;;20646292;28;20049;-81
2022/07/21 11:40:21;;;;;;;2.85;1.48;;;18.00;99.90;;;;;;20649651;28;20093;-80
2022/07/21 11:50:22;;;;;;;2.45;1.20;;;18.10;99.90;;;;;;20642799;28;20361;-80
2022/07/21 12:00:24;;;;;;;1.88;0.90;;;18.10;99.90;;;;;;20642062;28;20224;-79
2022/07/21 12:10:29;;;;;;;1.65;0.93;;;18.10;99.90;;;;;;20629399;28;20104;-79
2022/07/21 12:20:41;;;;;;;2.25;1.02;;;18.30;99.90;;;;;;20646457;28;20188;-79
2022/07/21 12:30:49;;;;;;;1.48;0.75;;;18.30;99.90;;;;;;20637662;28;20034;-80
2022/07/21 12:40:57;;;;;;;1.25;0.73;;;18.40;99.90;;;;;;20607876;28;20093;-80
2022/07/21 12:51:14;;;;;;;2.75;0.60;;;18.30;99.90;;;;;;20638708;28;20041;-80
2022/07/21 13:01:18;;;;;;;1.48;0.68;;;18.40;99.90;;;;;;20601616;28;20053;-81
2022/07/21 13:11:20;;;;;;;1.23;0.52;;;18.50;99.90;;;;;;20620283;28;20283;-81
2022/07/21 13:21:21;;;;;;;3.03;0.50;;;18.70;99.90;;;;;;20646592;28;20173;-81
2022/07/21 13:31:22;;;;;;;1.38;0.50;;;18.50;99.90;;;;;;20643484;28;20058;-81
2022/07/21 13:41:23;;;;;;;3.25;1.20;;;18.70;99.90;;;;;;20633643;28;20097;-84
2022/07/21 13:51:24;;;;;;;1.92;1.17;;;18.80;99.90;;;;;;20644816;28;20093;-81
2022/07/21 14:01:25;;;;;;;6.82;1.60;;;18.80;99.90;;;;;;20644132;28;20042;-80
2022/07/21 14:11:28;;;;;;;2.17;1.05;;;19.10;99.90;;;;;;20660828;28;20030;-80
2022/07/21 14:21:29;;;;;;;3.70;1.63;;;19.20;99.90;;;;;;20646815;28;20509;-79
2022/07/21 14:31:30;;;;;;;3.10;1.70;;;19.10;99.90;;;;;;20613398;28;20154;-80
2022/07/21 14:41:31;;;;;;;1.17;0.50;;;19.10;99.90;;;;;;20607823;28;20157;-80
2022/07/21 14:51:35;;;;;;;2.47;0.50;;;18.80;99.90;;;;;;20634510;28;20045;-80
2022/07/21 15:01:36;;;;;;;1.15;0.50;;;18.70;99.90;;;;;;20606280;28;20135;-80
2022/07/21 15:11:37;;;;;;;1.45;0.20;;;18.60;99.90;;;;;;20625681;28;20102;-81
2022/07/21 15:21:38;;;;;;;1.27;0.68;;;18.40;99.90;;;;;;20630460;28;20079;-80
2022/07/21 15:31:40;;;;;;;1.98;0.45;;;18.50;99.90;;;;;;20642333;28;20552;-81
2022/07/21 15:41:41;;;;;;;1.13;0.47;;;18.40;99.90;;;;;;20627422;28;20074;-80
2022/07/21 15:51:42;;;;;;;1.98;0.32;;;18.20;99.90;;;;;;20652237;28;20050;-82
2022/07/21 16:01:43;;;;;;;1.10;0.40;;;18.10;99.90;;;;;;20641709;28;20149;-81
2022/07/21 16:11:44;;;;;;;0.50;0.22;;;17.90;99.90;;;;;;20650125;28;20045;-82
2022/07/21 16:21:49;;;;;;;1.25;0.50;;;17.80;99.90;;;;;;20682426;28;20049;-84
2022/07/21 16:31:50;;;;;;;1.80;0.28;;;17.80;99.90;;;;;;20697465;28;20457;-83
2022/07/21 16:41:51;;;;;;;2.95;0.40;;;17.80;99.90;;;;;;20698277;28;20053;-83
2022/07/21 16:51:52;;;;;;;1.10;0.30;;;17.80;99.90;;;;;;20667362;28;20030;-82
2022/07/21 17:01:53;;;;;;;1.60;0.25;;;17.80;99.90;;;;;;20682103;28;20560;-81
2022/07/21 17:11:54;;;;;;;1.42;0.88;;;17.80;99.90;;;;;;20686918;28;20755;-86
2022/07/21 17:21:55;;;;;;;0.82;0.20;;;17.70;99.90;;;;;;20656633;28;20042;-86
2022/07/21 17:31:56;;;;;;;0.57;0.20;;;17.70;99.90;;;;;;20654853;28;20034;-82
2022/07/21 17:41:57;;;;;;;1.38;0.35;;;17.50;99.90;;;;;;20642052;28;20037;-82
2022/07/21 17:51:58;;;;;;;3.08;0.50;;;17.50;99.90;;;;;;20639828;28;20033;-82
2022/07/21 18:01:59;;;;;;;2.70;0.98;;;17.40;99.90;;;;;;20689670;28;20040;-82
2022/07/21 18:12:00;;;;;;;2.50;0.90;;;17.30;99.90;;;;;;20688471;28;20030;-82
2022/07/21 18:22:01;;;;;;;2.08;0.60;;;17.30;99.90;;;;;;20672457;28;20049;-81
2022/07/21 18:32:03;;;;;;;3.03;0.77;;;17.20;99.90;;;;;;20683742;28;20120;-82
2022/07/21 18:42:04;;;;;;;3.40;0.93;;;17.10;99.90;;;;;;20674924;28;20063;-81
2022/07/21 18:52:05;;;;;;;1.85;0.63;;;17.10;99.90;;;;;;20648574;28;20053;-81
2022/07/21 19:02:06;;;;;;;1.63;0.70;;;17.10;99.90;;;;;;20681621;28;20037;-80
2022/07/21 19:12:08;;;;;;;1.77;0.68;;;17.10;99.90;;;;;;20674712;28;20487;-81
2022/07/21 19:22:09;;;;;;;1.98;0.57;;;17.00;99.90;;;;;;20680391;28;20074;-81
2022/07/21 19:32:12;;;;;;;0.63;0.20;;;17.00;99.90;;;;;;20708732;28;20034;-81
2022/07/21 19:42:13;;;;;;;1.02;0.30;;;17.00;99.90;;;;;;20680187;28;20789;-80
2022/07/21 19:52:14;;;;;;;1.77;0.40;;;16.90;99.90;;;;;;20692071;28;20425;-81
2022/07/21 20:02:15;;;;;;;0.93;0.20;;;16.80;99.90;;;;;;20689735;28;20033;-80
2022/07/21 20:12:16;;;;;;;1.33;0.28;;;16.60;99.90;;;;;;20670645;28;20035;-81
2022/07/21 20:22:17;;;;;;;2.50;1.40;;;16.70;99.90;;;;;;20680894;28;21670;-81
2022/07/21 20:32:18;;;;;;;0.82;0.28;;;16.70;99.90;;;;;;20673914;28;20030;-81
2022/07/21 20:42:19;;;;;;;1.77;0.50;;;16.70;99.90;;;;;;20621687;28;20761;-80
2022/07/21 20:52:20;;;;;;;1.25;0.40;;;16.50;99.90;;;;;;20586419;28;20697;-81
2022/07/21 21:02:21;;;;;;;2.55;0.88;;;16.40;99.90;;;;;;20612796;28;20058;-81
2022/07/21 21:12:23;;;;;;;2.67;0.47;;;16.30;99.90;;;;;;20586391;28;20451;-81
2022/07/21 21:22:24;;;;;;;1.48;0.30;;;16.20;99.90;;;;;;20587146;28;20049;-80
2022/07/21 21:32:25;;;;;;;2.08;0.55;;;16.30;99.90;;;;;;20586291;28;20038;-81
2022/07/21 21:42:26;;;;;;;1.17;0.40;;;16.30;99.90;;;;;;20658760;28;20068;-81
2022/07/21 21:52:27;;;;;;;0.82;0.38;;;16.40;99.90;;;;;;20660549;28;20042;-80
2022/07/21 22:02:28;;;;;;;2.03;0.70;;;16.40;99.90;;;;;;20655776;28;20042;-81
2022/07/21 22:12:29;;;;;;;1.13;0.45;;;16.40;99.90;;;;;;20674047;28;20038;-81
2022/07/21 22:22:32;;;;;;;2.33;1.02;;;16.40;99.90;;;;;;20669640;28;20529;-81
2022/07/21 22:32:33;;;;;;;2.53;0.70;;;16.40;99.90;;;;;;20669480;28;20045;-81
2022/07/21 22:42:34;;;;;;;2.22;0.93;;;16.40;99.90;;;;;;20617703;28;20046;-80
2022/07/21 22:52:36;;;;;;;2.15;0.68;;;16.40;99.90;;;;;;20583313;28;20053;-81
2022/07/21 23:02:37;;;;;;;1.95;0.50;;;16.40;99.90;;;;;;20580698;28;20956;-81
2022/07/21 23:12:39;;;;;;;1.50;0.65;;;16.40;99.90;;;;;;20603713;28;20375;-81
2022/07/21 23:22:41;;;;;;;1.85;0.55;;;16.40;99.90;;;;;;20583425;28;20094;-82
2022/07/21 23:32:42;;;;;;;1.63;0.60;;;16.40;99.90;;;;;;20583739;28;20058;-81
2022/07/21 23:42:43;;;;;;;1.55;0.50;;;16.40;99.90;;;;;;20647093;28;20042;-81
2022/07/21 23:52:44;;;;;;;1.65;0.50;;;16.40;99.90;;;;;;20689461;28;20129;-81
